createdAt,value
2022-08-25T00:00:35.229Z,99381.95
2022-08-25T00:03:27.574Z,99385.19
2022-08-25T00:06:32.595Z,99389.16
2022-08-25T00:09:27.834Z,99389.25
2022-08-25T00:12:20.276Z,99392.77
2022-08-25T00:15:13.926Z,99391.13
2022-08-25T00:18:11.518Z,99380.28
2022-08-25T00:21:11.878Z,99379.25
2022-08-25T00:24:04.439Z,99375.02
2022-08-25T00:26:58.964Z,99379.00
2022-08-25T00:29:51.097Z,99378.11
2022-08-25T00:32:43.346Z,99380.73
2022-08-25T00:35:44.308Z,99377.58
2022-08-25T00:38:38.373Z,99375.33
2022-08-25T00:41:29.209Z,99373.39
2022-08-25T00:44:21.880Z,99376.46
2022-08-25T00:47:13.885Z,99377.08
2022-08-25T00:50:10.493Z,99372.52
2022-08-25T00:53:05.758Z,99373.83
2022-08-25T00:55:58.991Z,99381.09
2022-08-25T00:58:51.889Z,99383.49
2022-08-25T01:01:44.080Z,99382.86
2022-08-25T01:04:36.114Z,99380.89
2022-08-25T01:07:28.290Z,99378.40
2022-08-25T01:10:22.625Z,99380.90
2022-08-25T01:13:18.255Z,99380.75
2022-08-25T01:16:10.559Z,99381.66
2022-08-25T01:18:51.318Z,99382.09
2022-08-25T01:21:45.492Z,99373.64
2022-08-25T01:24:43.608Z,99375.67
2022-08-25T01:27:35.606Z,99375.89
2022-08-25T01:30:28.545Z,99375.02
2022-08-25T01:33:20.931Z,99378.02
2022-08-25T01:36:12.946Z,99384.77
2022-08-25T01:39:00.268Z,99384.84
2022-08-25T01:42:15.086Z,99383.09
2022-08-25T01:45:08.686Z,99379.61
2022-08-25T01:48:01.034Z,99383.23
2022-08-25T01:50:54.370Z,99379.16
2022-08-25T01:53:46.405Z,99379.38
2022-08-25T01:56:38.876Z,99377.71
2022-08-25T01:59:30.999Z,99381.11
2022-08-25T02:02:23.546Z,99386.81
2022-08-25T02:05:23.355Z,99387.16
2022-08-25T02:08:16.004Z,99382.90
2022-08-25T02:11:12.013Z,99379.67
2022-08-25T02:14:04.103Z,99378.61
2022-08-25T02:16:57.476Z,99376.59
2022-08-25T02:19:50.635Z,99372.41
2022-08-25T02:22:43.444Z,99370.12
2022-08-25T02:25:44.345Z,99370.13
2022-08-25T02:28:37.408Z,99371.16
2022-08-25T02:31:30.045Z,99372.83
2022-08-25T02:34:23.409Z,99372.02
2022-08-25T02:37:15.614Z,99372.70
2022-08-25T02:39:47.489Z,99370.66
2022-08-25T02:42:39.993Z,99371.55
2022-08-25T02:45:34.854Z,99372.44
2022-08-25T02:48:26.957Z,99377.52
2022-08-25T02:51:18.957Z,99383.10
2022-08-25T02:54:11.248Z,99382.60
2022-08-25T02:57:03.490Z,99374.40
2022-08-25T02:59:55.532Z,99375.33
2022-08-25T03:02:47.988Z,99377.73
2022-08-25T03:05:40.058Z,99380.59
2022-08-25T03:08:32.913Z,99373.48
2022-08-25T03:11:27.557Z,99373.55
2022-08-25T03:14:19.553Z,99376.41
2022-08-25T03:17:11.619Z,99375.90
2022-08-25T03:20:04.792Z,99378.73
2022-08-25T03:22:57.960Z,99375.19
2022-08-25T03:26:08.022Z,99373.40
2022-08-25T03:29:00.230Z,99380.10
2022-08-25T03:31:53.064Z,99373.77
2022-08-25T03:34:45.827Z,99383.77
2022-08-25T03:37:27.686Z,99384.84
2022-08-25T03:40:19.969Z,99380.34
2022-08-25T03:43:12.130Z,99379.83
2022-08-25T03:46:04.173Z,99375.83
2022-08-25T03:48:58.207Z,99378.94
2022-08-25T03:51:52.590Z,99383.40
2022-08-25T03:54:44.749Z,99381.05
2022-08-25T03:57:37.057Z,99378.75
2022-08-25T04:00:29.096Z,99378.08
2022-08-25T04:03:21.561Z,99375.41
2022-08-25T04:06:15.145Z,99377.82
2022-08-25T04:09:07.669Z,99375.67
2022-08-25T04:12:02.286Z,99378.05
2022-08-25T04:14:54.397Z,99374.30
2022-08-25T04:17:46.390Z,99375.34
2022-08-25T04:20:39.287Z,99369.97
2022-08-25T04:23:33.409Z,99368.96
2022-08-25T04:26:28.343Z,99362.23
2022-08-25T04:29:23.795Z,99360.83
2022-08-25T04:32:08.853Z,99362.02
2022-08-25T04:35:01.087Z,99360.80
2022-08-25T04:37:53.296Z,99362.51
2022-08-25T04:40:44.134Z,99361.95
2022-08-25T04:43:37.631Z,99358.61
2022-08-25T04:46:32.563Z,99364.75
2022-08-25T04:49:18.331Z,99364.04
2022-08-25T04:52:13.202Z,99364.14
2022-08-25T04:55:07.576Z,99363.92
2022-08-25T04:57:59.690Z,99366.81
2022-08-25T05:00:51.783Z,99370.10
2022-08-25T05:03:44.390Z,99369.61
2022-08-25T05:06:37.385Z,99368.17
2022-08-25T05:09:32.159Z,99366.10
2022-08-25T05:12:24.703Z,99366.35
2022-08-25T05:15:34.230Z,99367.73
2022-08-25T05:18:28.690Z,99367.21
2022-08-25T05:21:22.901Z,99368.58
2022-08-25T05:24:15.457Z,99374.10
2022-08-25T05:27:09.004Z,99374.31
2022-08-25T05:30:02.140Z,99372.56
2022-08-25T05:32:54.134Z,99377.71
2022-08-25T05:35:46.234Z,99380.00
2022-08-25T05:38:39.828Z,99383.23
2022-08-25T05:41:33.581Z,99385.08
2022-08-25T05:44:25.524Z,99380.55
2022-08-25T05:47:10.498Z,99381.04
2022-08-25T05:50:02.720Z,99382.70
2022-08-25T05:52:54.854Z,99379.45
2022-08-25T05:55:48.625Z,99377.41
2022-08-25T05:58:33.727Z,99380.20
2022-08-25T06:01:46.079Z,99381.30
2022-08-25T06:04:41.198Z,99382.77
2022-08-25T06:07:33.919Z,99384.96
2022-08-25T06:10:26.615Z,99388.14
2022-08-25T06:13:18.670Z,99387.80
2022-08-25T06:16:20.964Z,99388.16
2022-08-25T06:19:13.368Z,99389.19
2022-08-25T06:22:05.396Z,99390.66
2022-08-25T06:24:57.444Z,99390.30
2022-08-25T06:27:40.955Z,99387.84
2022-08-25T06:30:33.321Z,99390.28
2022-08-25T06:33:25.329Z,99390.95
2022-08-25T06:36:18.391Z,99394.33
2022-08-25T06:39:10.756Z,99399.15
2022-08-25T06:42:02.994Z,99397.50
2022-08-25T06:44:55.144Z,99399.09
2022-08-25T06:47:47.270Z,99401.84
2022-08-25T06:50:41.403Z,99399.73
2022-08-25T06:53:33.396Z,99398.79
2022-08-25T06:56:25.893Z,99400.17
2022-08-25T06:59:09.500Z,99402.41
2022-08-25T07:02:03.160Z,99406.83
2022-08-25T07:04:55.664Z,99404.04
2022-08-25T07:07:43.831Z,99402.64
2022-08-25T07:10:36.269Z,99404.06
2022-08-25T07:13:28.761Z,99401.62
2022-08-25T07:16:25.718Z,99402.42
2022-08-25T07:19:14.647Z,99404.60
2022-08-25T07:22:07.083Z,99400.53
2022-08-25T07:25:01.573Z,99400.46
2022-08-25T07:27:58.183Z,99402.25
2022-08-25T07:30:52.186Z,99406.83
2022-08-25T07:34:04.582Z,99406.27
2022-08-25T07:36:59.081Z,99408.22
2022-08-25T07:39:52.131Z,99405.79
2022-08-25T07:42:34.088Z,99406.71
2022-08-25T07:45:30.592Z,99407.05
2022-08-25T07:48:22.738Z,99411.41
2022-08-25T07:51:15.771Z,99408.48
2022-08-25T07:53:47.553Z,99407.09
2022-08-25T07:56:28.348Z,99406.17
2022-08-25T07:59:20.408Z,99405.23
2022-08-25T08:02:18.004Z,99406.02
2022-08-25T08:05:04.092Z,99405.58
2022-08-25T08:07:59.545Z,99407.98
2022-08-25T08:11:09.690Z,99407.30
2022-08-25T08:14:03.325Z,99404.88
2022-08-25T08:16:55.753Z,99404.50
2022-08-25T08:19:43.101Z,99406.25
2022-08-25T08:22:29.561Z,99406.95
2022-08-25T08:25:26.660Z,99407.27
2022-08-25T08:28:19.935Z,99404.91
2022-08-25T08:31:12.420Z,99405.80
2022-08-25T08:34:04.557Z,99404.89
2022-08-25T08:36:56.960Z,99403.06
2022-08-25T08:39:49.011Z,99397.58
2022-08-25T08:42:57.887Z,99399.22
2022-08-25T08:45:58.106Z,99399.84
2022-08-25T08:49:07.373Z,99398.93
2022-08-25T08:52:03.033Z,99400.35
2022-08-25T08:55:05.579Z,99396.85
2022-08-25T08:58:00.901Z,99394.20
2022-08-25T09:00:58.126Z,99391.66
2022-08-25T09:03:55.852Z,99389.68
2022-08-25T09:06:50.913Z,99389.80
2022-08-25T09:09:44.188Z,99383.91
2022-08-25T09:12:47.958Z,99379.97
2022-08-25T09:16:08.353Z,99375.39
2022-08-25T09:19:21.532Z,99373.55
2022-08-25T09:22:35.724Z,99373.77
2022-08-25T09:25:52.551Z,99371.16
2022-08-25T09:28:51.135Z,99370.42
2022-08-25T09:31:44.862Z,99367.41
2022-08-25T09:34:38.041Z,99361.27
2022-08-25T09:37:30.339Z,99363.20
2022-08-25T09:40:25.489Z,99361.94
2022-08-25T09:43:25.165Z,99359.03
2022-08-25T09:46:27.148Z,99354.16
2022-08-25T09:49:19.429Z,99350.79
2022-08-25T09:52:41.712Z,99346.10
2022-08-25T09:55:35.546Z,99344.19
2022-08-25T09:58:27.782Z,99338.02
2022-08-25T10:01:22.550Z,99334.58
2022-08-25T10:04:07.532Z,99332.38
2022-08-25T10:07:26.939Z,99324.02
2022-08-25T10:10:24.475Z,99322.46
2022-08-25T10:13:22.687Z,99326.16
2022-08-25T10:16:20.190Z,99325.02
2022-08-25T10:19:25.659Z,99322.64
2022-08-25T10:22:31.782Z,99321.22
2022-08-25T10:25:30.993Z,99313.52
2022-08-25T10:28:24.038Z,99314.58
2022-08-25T10:31:23.374Z,99309.91
2022-08-25T10:34:31.307Z,99310.36
2022-08-25T10:37:23.521Z,99312.40
2022-08-25T10:40:22.811Z,99308.17
2022-08-25T10:43:25.896Z,99302.00
2022-08-25T10:46:26.558Z,99299.87
2022-08-25T10:49:24.797Z,99296.82
2022-08-25T10:52:14.699Z,99296.06
2022-08-25T10:55:07.839Z,99292.73
2022-08-25T10:58:08.543Z,99291.60
2022-08-25T11:01:11.434Z,99294.89
2022-08-25T11:04:15.708Z,99292.71
2022-08-25T11:07:11.405Z,99288.22
2022-08-25T11:10:09.941Z,99284.77
2022-08-25T11:13:11.290Z,99281.89
2022-08-25T11:16:17.569Z,99275.72
2022-08-25T11:19:17.090Z,99267.02
2022-08-25T11:22:06.023Z,99261.84
2022-08-25T11:25:11.140Z,99264.57
2022-08-25T11:28:08.948Z,99261.17
2022-08-25T11:31:05.118Z,99258.87
2022-08-25T11:33:59.242Z,99258.91
2022-08-25T11:36:58.148Z,99252.59
2022-08-25T11:40:13.753Z,99250.41
2022-08-25T11:43:15.395Z,99248.04
2022-08-25T11:46:22.283Z,99244.80
2022-08-25T11:49:42.130Z,99243.88
2022-08-25T11:52:49.408Z,99234.77
2022-08-25T11:55:52.496Z,99231.95
2022-08-25T11:58:50.681Z,99229.59
2022-08-25T12:02:29.244Z,99228.27
2022-08-25T12:05:54.137Z,99224.95
2022-08-25T12:08:57.506Z,99221.23
2022-08-25T12:11:55.783Z,99217.65
2022-08-25T12:14:49.245Z,99220.52
2022-08-25T12:17:42.534Z,99221.35
2022-08-25T12:21:05.044Z,99216.61
2022-08-25T12:24:12.991Z,99215.75
2022-08-25T12:26:56.416Z,99215.23
2022-08-25T12:29:52.541Z,99211.65
2022-08-25T12:33:01.353Z,99209.66
2022-08-25T12:36:00.447Z,99204.10
2022-08-25T12:38:53.227Z,99202.52
2022-08-25T12:41:30.909Z,99200.42
2022-08-25T12:44:39.642Z,99196.78
2022-08-25T12:47:33.957Z,99196.36
2022-08-25T12:50:33.564Z,99197.06
2022-08-25T12:53:35.152Z,99193.98
2022-08-25T12:56:39.197Z,99193.80
2022-08-25T12:59:43.689Z,99198.34
2022-08-25T13:02:51.828Z,99193.46
2022-08-25T13:06:04.371Z,99190.64
2022-08-25T13:09:47.173Z,99192.41
2022-08-25T13:12:47.195Z,99187.66
2022-08-25T13:15:45.178Z,99189.57
2022-08-25T13:18:40.880Z,99185.52
2022-08-25T13:21:37.132Z,99187.95
2022-08-25T13:24:40.178Z,99189.43
2022-08-25T13:27:35.125Z,99185.38
2022-08-25T13:30:30.731Z,99183.21
2022-08-25T13:33:24.186Z,99178.06
2022-08-25T13:36:37.522Z,99172.10
2022-08-25T13:39:45.263Z,99178.46
2022-08-25T13:42:34.143Z,99176.33
2022-08-25T13:45:31.714Z,99178.55
2022-08-25T13:48:37.750Z,99176.46
2022-08-25T13:51:31.005Z,99175.63
2022-08-25T13:54:32.190Z,99172.09
2022-08-25T13:57:23.528Z,99165.61
2022-08-25T14:00:31.602Z,99159.86
2022-08-25T14:03:08.676Z,99159.37
2022-08-25T14:06:11.521Z,99154.31
2022-08-25T14:09:16.731Z,99153.05
2022-08-25T14:12:09.059Z,99148.27
2022-08-25T14:15:04.023Z,99149.73
2022-08-25T14:18:07.041Z,99146.97
2022-08-25T14:21:02.178Z,99146.70
2022-08-25T14:23:55.579Z,99149.16
2022-08-25T14:26:37.571Z,99146.86
2022-08-25T14:29:36.022Z,99144.20
2022-08-25T14:32:33.916Z,99142.06
2022-08-25T14:35:25.943Z,99138.05
2022-08-25T14:38:20.005Z,99136.75
2022-08-25T14:41:12.521Z,99136.38
2022-08-25T14:44:06.333Z,99133.73
2022-08-25T14:46:59.545Z,99139.85
2022-08-25T14:49:45.863Z,99139.84
2022-08-25T14:52:38.104Z,99137.91
2022-08-25T14:55:31.747Z,99138.45
2022-08-25T14:58:26.031Z,99135.17
2022-08-25T15:01:28.413Z,99132.78
2022-08-25T15:04:16.651Z,99132.52
2022-08-25T15:07:23.373Z,99129.33
2022-08-25T15:10:15.955Z,99134.15
2022-08-25T15:12:48.223Z,99130.05
2022-08-25T15:15:52.627Z,99131.86
2022-08-25T15:18:50.249Z,99127.05
2022-08-25T15:21:35.806Z,99123.98
2022-08-25T15:24:28.565Z,99122.14
2022-08-25T15:27:22.190Z,99119.77
2022-08-25T15:30:03.850Z,99118.80
2022-08-25T15:32:49.595Z,99119.04
2022-08-25T15:35:43.455Z,99118.05
2022-08-25T15:38:37.558Z,99118.15
2022-08-25T15:41:29.844Z,99117.75
2022-08-25T15:44:26.139Z,99121.41
2022-08-25T15:47:21.850Z,99115.64
2022-08-25T15:50:16.932Z,99115.95
2022-08-25T15:53:10.704Z,99115.79
2022-08-25T15:56:04.696Z,99112.48
2022-08-25T15:58:58.771Z,99112.48
2022-08-25T16:01:53.834Z,99111.98
2022-08-25T16:04:39.582Z,99118.44
2022-08-25T16:07:31.726Z,99117.08
2022-08-25T16:10:23.959Z,99118.81
2022-08-25T16:13:17.304Z,99113.73
2022-08-25T16:16:09.856Z,99111.37
2022-08-25T16:19:02.465Z,99116.11
2022-08-25T16:21:54.459Z,99111.20
2022-08-25T16:24:46.628Z,99116.70
2022-08-25T16:27:39.328Z,99113.64
2022-08-25T16:30:22.828Z,99112.91
2022-08-25T16:33:16.005Z,99116.58
2022-08-25T16:36:12.310Z,99115.58
2022-08-25T16:39:04.570Z,99119.04
2022-08-25T16:41:59.500Z,99120.61
2022-08-25T16:44:52.749Z,99123.95
2022-08-25T16:47:46.328Z,99124.77
2022-08-25T16:50:41.125Z,99124.95
2022-08-25T16:53:50.314Z,99122.98
2022-08-25T16:56:42.429Z,99124.50
2022-08-25T16:59:17.893Z,99124.45
2022-08-25T17:02:09.957Z,99129.84
2022-08-25T17:05:02.040Z,99130.16
2022-08-25T17:08:11.876Z,99124.05
2022-08-25T17:10:53.770Z,99128.61
2022-08-25T17:13:44.550Z,99127.23
2022-08-25T17:16:37.177Z,99131.45
2022-08-25T17:19:29.384Z,99132.16
2022-08-25T17:22:15.825Z,99132.01
2022-08-25T17:25:10.692Z,99136.02
2022-08-25T17:28:02.963Z,99140.20
2022-08-25T17:30:55.377Z,99139.98
2022-08-25T17:33:48.607Z,99147.71
2022-08-25T17:36:41.580Z,99145.63
2022-08-25T17:39:28.615Z,99147.89
2022-08-25T17:42:20.303Z,99152.64
2022-08-25T17:45:12.975Z,99149.59
2022-08-25T17:48:05.574Z,99152.98
2022-08-25T17:50:48.148Z,99152.30
2022-08-25T17:53:41.453Z,99155.76
2022-08-25T17:56:34.575Z,99154.08
2022-08-25T17:59:27.796Z,99156.34
2022-08-25T18:02:17.005Z,99158.94
2022-08-25T18:05:10.263Z,99161.80
2022-08-25T18:08:03.526Z,99166.95
2022-08-25T18:10:57.018Z,99168.88
2022-08-25T18:13:50.524Z,99169.13
2022-08-25T18:16:42.653Z,99178.65
2022-08-25T18:19:34.744Z,99176.89
2022-08-25T18:22:26.796Z,99179.45
2022-08-25T18:25:20.637Z,99182.48
2022-08-25T18:28:13.060Z,99184.36
2022-08-25T18:31:05.168Z,99187.30
2022-08-25T18:33:59.226Z,99186.59
2022-08-25T18:36:51.532Z,99186.05
2022-08-25T18:40:02.094Z,99184.58
2022-08-25T18:42:44.057Z,99184.15
2022-08-25T18:45:31.448Z,99184.81
2022-08-25T18:48:26.609Z,99187.97
2022-08-25T18:51:10.433Z,99193.35
2022-08-25T18:54:03.104Z,99194.80
2022-08-25T18:56:57.568Z,99193.05
2022-08-25T18:59:49.646Z,99191.48
2022-08-25T19:02:41.908Z,99187.17
2022-08-25T19:05:42.342Z,99185.04
2022-08-25T19:08:39.605Z,99185.58
2022-08-25T19:11:34.491Z,99184.80
2022-08-25T19:14:27.079Z,99188.30
2022-08-25T19:17:13.288Z,99189.03
2022-08-25T19:19:48.139Z,99190.29
2022-08-25T19:22:42.238Z,99186.58
2022-08-25T19:25:34.665Z,99187.44
2022-08-25T19:28:26.876Z,99191.02
2022-08-25T19:30:59.244Z,99191.60
2022-08-25T19:33:45.383Z,99193.65
2022-08-25T19:36:30.263Z,99190.63
2022-08-25T19:39:22.548Z,99192.55
2022-08-25T19:42:07.984Z,99188.55
2022-08-25T19:45:14.620Z,99193.60
2022-08-25T19:48:07.984Z,99192.48
2022-08-25T19:51:00.177Z,99192.21
2022-08-25T19:53:44.562Z,99190.63
2022-08-25T19:56:36.682Z,99189.37
2022-08-25T19:59:36.668Z,99193.90
2022-08-25T20:02:45.814Z,99192.15
2022-08-25T20:05:39.766Z,99192.69
2022-08-25T20:08:34.921Z,99196.43
2022-08-25T20:11:27.034Z,99201.16
2022-08-25T20:14:19.411Z,99199.66
2022-08-25T20:17:23.171Z,99204.60
2022-08-25T20:20:41.730Z,99197.82
2022-08-25T20:24:11.893Z,99198.02
2022-08-25T20:27:04.029Z,99198.58
2022-08-25T20:29:56.120Z,99202.50
2022-08-25T20:32:37.626Z,99202.56
2022-08-25T20:35:30.675Z,99199.95
2022-08-25T20:38:23.072Z,99197.27
2022-08-25T20:41:15.757Z,99194.21
2022-08-25T20:44:00.476Z,99190.52
2022-08-25T20:46:42.588Z,99188.77
2022-08-25T20:49:14.616Z,99185.45
2022-08-25T20:52:08.681Z,99185.30
2022-08-25T20:54:40.679Z,99197.02
2022-08-25T20:57:35.894Z,99196.05
2022-08-25T21:00:11.046Z,99194.55
2022-08-25T21:02:42.979Z,99193.67
2022-08-25T21:05:35.150Z,99197.74
2022-08-25T21:08:27.977Z,99194.09
2022-08-25T21:11:22.126Z,99193.25
2022-08-25T21:14:08.230Z,99194.09
2022-08-25T21:17:00.397Z,99195.80
2022-08-25T21:19:52.424Z,99195.02
2022-08-25T21:22:44.499Z,99197.55
2022-08-25T21:25:42.233Z,99194.08
2022-08-25T21:28:34.840Z,99191.85
2022-08-25T21:31:28.434Z,99190.20
2022-08-25T21:34:22.044Z,99188.16
2022-08-25T21:37:16.663Z,99187.52
2022-08-25T21:40:10.799Z,99183.88
2022-08-25T21:43:02.971Z,99181.13
2022-08-25T21:45:55.515Z,99175.48
2022-08-25T21:48:50.372Z,99175.92
2022-08-25T21:51:44.629Z,99174.40
2022-08-25T21:55:03.842Z,99172.95
2022-08-25T21:57:56.211Z,99170.36
2022-08-25T22:00:48.276Z,99170.31
2022-08-25T22:03:41.148Z,99166.56
2022-08-25T22:06:33.928Z,99169.36
2022-08-25T22:09:07.397Z,99171.33
2022-08-25T22:12:00.543Z,99169.80
2022-08-25T22:14:52.718Z,99167.88
2022-08-25T22:17:44.758Z,99170.42
2022-08-25T22:20:36.746Z,99167.06
2022-08-25T22:23:31.758Z,99167.89
2022-08-25T22:26:35.893Z,99167.19
2022-08-25T22:29:25.931Z,99163.95
2022-08-25T22:32:32.570Z,99164.30
2022-08-25T22:35:24.586Z,99163.13
2022-08-25T22:38:34.667Z,99161.33
2022-08-25T22:41:29.016Z,99158.17
2022-08-25T22:44:20.989Z,99157.41
2022-08-25T22:47:13.138Z,99153.93
2022-08-25T22:49:45.160Z,99152.59
2022-08-25T22:52:38.234Z,99149.21
2022-08-25T22:55:34.526Z,99150.83
2022-08-25T22:58:26.594Z,99148.40
2022-08-25T23:01:21.008Z,99148.85
2022-08-25T23:04:14.698Z,99149.73
2022-08-25T23:07:02.824Z,99144.67
2022-08-25T23:09:47.479Z,99143.96
2022-08-25T23:12:30.574Z,99143.21
2022-08-25T23:15:22.643Z,99138.08
2022-08-25T23:18:14.908Z,99133.36
2022-08-25T23:21:24.853Z,99131.10
2022-08-25T23:24:29.416Z,99132.80
2022-08-25T23:27:23.919Z,99129.96
2022-08-25T23:30:17.077Z,99131.34
2022-08-25T23:33:09.881Z,99130.96
2022-08-25T23:36:04.574Z,99129.22
2022-08-25T23:38:57.359Z,99129.21
2022-08-25T23:41:49.395Z,99127.04
2022-08-25T23:44:41.425Z,99123.06
2022-08-25T23:47:33.502Z,99119.30
2022-08-25T23:50:25.513Z,99118.36
2022-08-25T23:53:20.739Z,99118.13
2022-08-25T23:56:13.038Z,99110.77
2022-08-25T23:59:06.166Z,99109.40
